Time;durP1;ratioP1;P1;durP2;ratioP2;P2;SDS_P1;SDS_P2;PMS_P1;PMS_P2;Temp;Humidity;BMP_temperature;BMP_pressure;BME280_temperature;BME280_humidity;BME280_pressure;Samples;Min_cycle;Max_cycle;Signal;HPM_P1;HPM_P2
2021/07/30 00:00:06;;;;;;;;;;;13.50;99.90;;;;;;5075069;28;20334;-81
2021/07/30 00:02:34;;;;;;;;;;;13.60;99.90;;;;;;5075336;28;19942;-82
2021/07/30 00:05:01;;;;;;;;;;;13.60;99.90;;;;;;5075312;28;19925;-82
2021/07/30 00:07:28;;;;;;;;;;;13.60;99.90;;;;;;5075344;28;19934;-82
2021/07/30 00:09:55;;;;;;;;;;;13.60;99.90;;;;;;5074970;28;20037;-82
2021/07/30 00:12:23;;;;;;;;;;;13.60;99.90;;;;;;5074250;28;20393;-82
2021/07/30 00:14:50;;;;;;;;;;;13.60;99.90;;;;;;5075193;28;19935;-82
2021/07/30 00:17:17;;;;;;;;;;;13.60;99.90;;;;;;5075188;28;19925;-81
2021/07/30 00:19:45;;;;;;;;;;;13.60;99.90;;;;;;5075203;28;20261;-82
2021/07/30 00:22:12;;;;;;;;;;;13.60;99.90;;;;;;5074895;28;19925;-83
2021/07/30 00:24:39;;;;;;;;;;;13.60;99.90;;;;;;5075053;28;19924;-82
2021/07/30 00:27:06;;;;;;;;;;;13.50;99.90;;;;;;5074890;28;19930;-83
2021/07/30 00:29:32;;;;;;;;;;;13.50;99.90;;;;;;5074873;28;20253;-83
2021/07/30 00:31:59;;;;;;;;;;;13.50;99.90;;;;;;5074938;28;19943;-83
2021/07/30 00:34:26;;;;;;;;;;;13.50;99.90;;;;;;5074887;28;20330;-82
2021/07/30 00:36:54;;;;;;;;;;;13.50;99.90;;;;;;5074758;28;19935;-83
2021/07/30 00:39:21;;;;;;;;;;;13.50;99.90;;;;;;5075015;28;19925;-83
2021/07/30 00:41:48;;;;;;;;;;;13.50;99.90;;;;;;5074954;28;19924;-83
2021/07/30 00:44:15;;;;;;;;;;;13.50;99.90;;;;;;5074981;28;19947;-83
2021/07/30 00:46:42;;;;;;;;;;;13.50;99.90;;;;;;5074898;28;20254;-83
2021/07/30 00:49:09;;;;;;;;;;;13.50;99.90;;;;;;5074842;28;19924;-83
2021/07/30 00:51:36;;;;;;;;;;;13.50;99.90;;;;;;5074827;28;19931;-83
2021/07/30 00:54:05;;;;;;;;;;;13.50;99.90;;;;;;5077277;28;20019;-82
2021/07/30 00:56:31;;;;;;;;;;;13.50;99.90;;;;;;5078531;28;19932;-83
2021/07/30 00:58:58;;;;;;;;;;;13.60;99.90;;;;;;5078618;28;20272;-83
2021/07/30 01:01:25;;;;;;;;;;;13.60;99.90;;;;;;5078469;28;19931;-83
2021/07/30 01:03:52;;;;;;;;;;;13.60;99.90;;;;;;5078584;28;20264;-83
2021/07/30 01:06:19;;;;;;;;;;;13.60;99.90;;;;;;5078313;28;20346;-83
2021/07/30 01:08:46;;;;;;;;;;;13.60;99.90;;;;;;5078102;28;19936;-83
2021/07/30 01:11:14;;;;;;;;;;;13.50;99.90;;;;;;5078179;28;19931;-83
2021/07/30 01:13:41;;;;;;;;;;;13.50;99.90;;;;;;5078056;28;19929;-83
2021/07/30 01:16:08;;;;;;;;;;;13.50;99.90;;;;;;5078111;28;19931;-84
2021/07/30 01:18:34;;;;;;;;;;;13.50;99.90;;;;;;5078061;28;20269;-83
2021/07/30 01:21:08;;;;;;;;;;;13.50;99.90;;;;;;5078095;28;20384;-83
2021/07/30 01:23:36;;;;;;;;;;;13.50;99.90;;;;;;5077963;28;19978;-83
2021/07/30 01:26:03;;;;;;;;;;;13.50;99.90;;;;;;5078030;28;19925;-83
2021/07/30 01:28:30;;;;;;;;;;;13.40;99.90;;;;;;5078041;28;19925;-84
2021/07/30 01:30:57;;;;;;;;;;;13.40;99.90;;;;;;5077803;28;19932;-84
2021/07/30 01:33:24;;;;;;;;;;;13.40;99.90;;;;;;5077759;28;19928;-84
2021/07/30 01:35:51;;;;;;;;;;;13.40;99.90;;;;;;5077739;28;20479;-83
2021/07/30 01:38:17;;;;;;;;;;;13.40;99.90;;;;;;5077888;28;19924;-83
2021/07/30 01:40:46;;;;;;;;;;;13.50;99.90;;;;;;5077779;28;19934;-83
2021/07/30 01:43:13;;;;;;;;;;;13.50;99.90;;;;;;5078081;28;19935;-84
2021/07/30 01:45:39;;;;;;;;;;;13.50;99.90;;;;;;5077714;28;19936;-84
2021/07/30 01:48:06;;;;;;;;;;;13.50;99.90;;;;;;5077601;28;19946;-83
2021/07/30 01:50:33;;;;;;;;;;;13.50;99.90;;;;;;5077390;28;20247;-83
2021/07/30 01:53:00;;;;;;;;;;;13.50;99.90;;;;;;5077350;28;20253;-84
2021/07/30 01:55:27;;;;;;;;;;;13.50;99.90;;;;;;5077430;28;19925;-83
2021/07/30 01:57:55;;;;;;;;;;;13.50;99.90;;;;;;5077614;28;19929;-83
2021/07/30 02:00:22;;;;;;;;;;;13.50;99.90;;;;;;5077437;28;19929;-83
2021/07/30 02:02:49;;;;;;;;;;;13.50;99.90;;;;;;5077294;28;19925;-83
2021/07/30 02:05:16;;;;;;;;;;;13.50;99.90;;;;;;5076514;28;19935;-83
2021/07/30 02:07:42;;;;;;;;;;;13.50;99.90;;;;;;5077269;28;19930;-83
2021/07/30 02:10:10;;;;;;;;;;;13.50;99.90;;;;;;5077121;28;19935;-83
2021/07/30 02:14:15;;;;;;;;;;;13.50;99.90;;;;;;5077067;28;20366;-83
2021/07/30 02:15:24;;;;;;;;;;;13.50;99.90;;;;;;5077132;28;20193;-83
2021/07/30 02:17:50;;;;;;;;;;;13.50;99.90;;;;;;5077596;28;19986;-83
2021/07/30 02:20:17;;;;;;;;;;;13.50;99.90;;;;;;5077014;28;19925;-86
2021/07/30 02:22:44;;;;;;;;;;;13.50;99.90;;;;;;5077022;28;19947;-83
2021/07/30 02:25:11;;;;;;;;;;;13.50;99.90;;;;;;5076763;28;20258;-83
2021/07/30 02:27:38;;;;;;;;;;;13.50;99.90;;;;;;5076925;28;20239;-83
2021/07/30 02:30:05;;;;;;;;;;;13.50;99.90;;;;;;5076737;28;19931;-83
2021/07/30 02:32:33;;;;;;;;;;;13.50;99.90;;;;;;5076911;28;19935;-83
2021/07/30 02:35:00;;;;;;;;;;;13.50;99.90;;;;;;5076802;28;19924;-83
2021/07/30 02:37:27;;;;;;;;;;;13.50;99.90;;;;;;5076727;28;19924;-84
2021/07/30 02:39:54;;;;;;;;;;;13.50;99.90;;;;;;5076749;28;19929;-83
2021/07/30 02:42:21;;;;;;;;;;;13.50;99.90;;;;;;5076576;28;19924;-83
2021/07/30 02:44:48;;;;;;;;;;;13.50;99.90;;;;;;5076360;28;20281;-83
2021/07/30 02:47:14;;;;;;;;;;;13.50;99.90;;;;;;5076343;28;20338;-83
2021/07/30 02:49:43;;;;;;;;;;;13.50;99.90;;;;;;5076308;28;19924;-83
2021/07/30 02:52:10;;;;;;;;;;;13.50;99.90;;;;;;5076616;28;19924;-83
2021/07/30 02:54:36;;;;;;;;;;;13.60;99.90;;;;;;5076239;28;20277;-83
2021/07/30 02:57:03;;;;;;;;;;;13.60;99.90;;;;;;5076394;28;19924;-83
2021/07/30 02:59:33;;;;;;;;;;;13.50;99.90;;;;;;5076077;28;19931;-82
2021/07/30 03:02:00;;;;;;;;;;;13.50;99.90;;;;;;5076344;28;20227;-83
2021/07/30 03:04:27;;;;;;;;;;;13.50;99.90;;;;;;5076271;28;19924;-82
2021/07/30 03:06:55;;;;;;;;;;;13.50;99.90;;;;;;5076054;28;19929;-83
2021/07/30 03:09:22;;;;;;;;;;;13.50;99.90;;;;;;5075776;28;19924;-83
2021/07/30 03:11:49;;;;;;;;;;;13.50;99.90;;;;;;5075942;28;19932;-83
2021/07/30 03:14:15;;;;;;;;;;;13.50;99.90;;;;;;5075806;28;19934;-84
2021/07/30 03:16:42;;;;;;;;;;;13.50;99.90;;;;;;5075169;28;20092;-82
2021/07/30 03:19:09;;;;;;;;;;;13.50;99.90;;;;;;5076007;28;19931;-83
2021/07/30 03:21:36;;;;;;;;;;;13.50;99.90;;;;;;5075778;28;20257;-83
2021/07/30 03:24:05;;;;;;;;;;;13.50;99.90;;;;;;5075823;28;19971;-84
2021/07/30 03:26:32;;;;;;;;;;;13.50;99.90;;;;;;5075641;28;19931;-84
2021/07/30 03:28:58;;;;;;;;;;;13.40;99.90;;;;;;5075476;28;19931;-84
2021/07/30 03:31:25;;;;;;;;;;;13.40;99.90;;;;;;5075642;28;19935;-84
2021/07/30 03:33:52;;;;;;;;;;;13.40;99.90;;;;;;5075686;28;19924;-85
2021/07/30 03:36:19;;;;;;;;;;;13.30;99.90;;;;;;5075535;28;19935;-85
2021/07/30 03:38:46;;;;;;;;;;;13.30;99.90;;;;;;5075744;28;19925;-85
2021/07/30 03:41:14;;;;;;;;;;;13.30;99.90;;;;;;5075630;28;19924;-86
2021/07/30 03:43:41;;;;;;;;;;;13.30;99.90;;;;;;5075568;28;20273;-86
2021/07/30 03:46:08;;;;;;;;;;;13.30;99.90;;;;;;5075320;28;19934;-86
2021/07/30 03:48:36;;;;;;;;;;;13.30;99.90;;;;;;5075543;28;19998;-86
2021/07/30 03:51:03;;;;;;;;;;;13.30;99.90;;;;;;5075622;28;19925;-87
2021/07/30 03:53:30;;;;;;;;;;;13.30;99.90;;;;;;5075490;28;19930;-87
2021/07/30 03:55:57;;;;;;;;;;;13.30;99.90;;;;;;5075776;28;19925;-88
2021/07/30 03:58:25;;;;;;;;;;;13.30;99.90;;;;;;5075451;28;20566;-88
2021/07/30 04:00:52;;;;;;;;;;;13.30;99.90;;;;;;5075432;28;19924;-88
2021/07/30 04:03:19;;;;;;;;;;;13.30;99.90;;;;;;5075343;28;19925;-88
2021/07/30 04:05:46;;;;;;;;;;;13.30;99.90;;;;;;5075575;28;19932;-88
2021/07/30 04:08:13;;;;;;;;;;;13.30;99.90;;;;;;5075174;28;19936;-87
2021/07/30 04:10:40;;;;;;;;;;;13.30;99.90;;;;;;5075292;28;19924;-87
2021/07/30 04:13:07;;;;;;;;;;;13.30;99.90;;;;;;5075347;28;19924;-86
2021/07/30 04:15:35;;;;;;;;;;;13.30;99.90;;;;;;5075513;28;19924;-87
2021/07/30 04:18:02;;;;;;;;;;;13.20;99.90;;;;;;5075125;28;19946;-87
2021/07/30 04:20:29;;;;;;;;;;;13.20;99.90;;;;;;5075117;28;20261;-88
2021/07/30 04:22:55;;;;;;;;;;;13.20;99.90;;;;;;5075242;28;19925;-86
2021/07/30 04:25:22;;;;;;;;;;;13.20;99.90;;;;;;5075080;28;19925;-87
2021/07/30 04:27:49;;;;;;;;;;;13.20;99.90;;;;;;5075645;28;19935;-88
2021/07/30 04:30:16;;;;;;;;;;;13.20;99.90;;;;;;5079289;28;19935;-87
2021/07/30 04:32:44;;;;;;;;;;;13.20;99.90;;;;;;5079166;28;19935;-88
2021/07/30 04:35:11;;;;;;;;;;;13.20;99.90;;;;;;5079123;28;19935;-88
2021/07/30 04:37:38;;;;;;;;;;;13.20;99.90;;;;;;5079121;28;19935;-87
2021/07/30 04:40:06;;;;;;;;;;;13.20;99.90;;;;;;5079171;28;19935;-88
2021/07/30 04:42:33;;;;;;;;;;;13.20;99.90;;;;;;5079049;28;19924;-88
2021/07/30 04:44:59;;;;;;;;;;;13.20;99.90;;;;;;5078951;28;19934;-88
2021/07/30 04:47:26;;;;;;;;;;;13.20;99.90;;;;;;5079002;28;19934;-89
2021/07/30 04:49:55;;;;;;;;;;;13.20;99.90;;;;;;5078837;28;19935;-87
2021/07/30 04:52:22;;;;;;;;;;;13.20;99.90;;;;;;5078658;28;19925;-88
2021/07/30 04:54:48;;;;;;;;;;;13.20;99.90;;;;;;5078569;28;19924;-88
2021/07/30 04:57:15;;;;;;;;;;;13.20;99.90;;;;;;5078683;28;19935;-88
2021/07/30 04:59:42;;;;;;;;;;;13.20;99.90;;;;;;5078861;28;20346;-87
2021/07/30 05:02:09;;;;;;;;;;;13.20;99.90;;;;;;5078762;28;19925;-87
2021/07/30 05:04:36;;;;;;;;;;;13.20;99.90;;;;;;5078536;28;19925;-87
2021/07/30 05:07:05;;;;;;;;;;;13.30;99.90;;;;;;5078435;28;19924;-89
2021/07/30 05:09:31;;;;;;;;;;;13.30;99.90;;;;;;5078492;28;19924;-88
2021/07/30 05:11:58;;;;;;;;;;;13.30;99.90;;;;;;5078627;28;19924;-88
2021/07/30 05:14:25;;;;;;;;;;;13.30;99.90;;;;;;5078334;28;19954;-86
2021/07/30 05:16:52;;;;;;;;;;;13.20;99.90;;;;;;5078532;28;19976;-87
2021/07/30 05:19:19;;;;;;;;;;;13.20;99.90;;;;;;5078311;28;19938;-88
2021/07/30 05:21:47;;;;;;;;;;;13.20;99.90;;;;;;5078120;28;20346;-87
2021/07/30 05:24:15;;;;;;;;;;;13.20;99.90;;;;;;5078343;28;20247;-88
2021/07/30 05:26:42;;;;;;;;;;;13.20;99.90;;;;;;5078097;28;20380;-87
2021/07/30 05:29:09;;;;;;;;;;;13.20;99.90;;;;;;5078210;28;20342;-87
2021/07/30 05:31:36;;;;;;;;;;;13.20;99.90;;;;;;5078044;28;19924;-87
2021/07/30 05:34:03;;;;;;;;;;;13.10;99.90;;;;;;5078191;28;19932;-87
2021/07/30 05:36:30;;;;;;;;;;;13.10;99.90;;;;;;5078146;28;19924;-87
2021/07/30 05:38:56;;;;;;;;;;;13.10;99.90;;;;;;5077439;28;19934;-86
2021/07/30 05:41:25;;;;;;;;;;;13.10;99.90;;;;;;5077229;28;19929;-85
2021/07/30 05:43:52;;;;;;;;;;;13.10;99.90;;;;;;5077646;28;20342;-84
2021/07/30 05:46:20;;;;;;;;;;;13.10;99.90;;;;;;5077645;28;19924;-86
2021/07/30 05:48:46;;;;;;;;;;;13.20;99.90;;;;;;5077995;28;19925;-87
2021/07/30 05:51:13;;;;;;;;;;;13.20;99.90;;;;;;5077752;28;20346;-86
2021/07/30 05:53:40;;;;;;;;;;;13.10;99.90;;;;;;5077501;28;20330;-87
2021/07/30 05:56:07;;;;;;;;;;;13.10;99.90;;;;;;5077472;28;19931;-87
2021/07/30 05:58:35;;;;;;;;;;;13.10;99.90;;;;;;5077536;28;19924;-86
2021/07/30 06:01:02;;;;;;;;;;;13.10;99.90;;;;;;5077280;28;19924;-85
2021/07/30 06:03:29;;;;;;;;;;;13.10;99.90;;;;;;5077369;28;19934;-85
2021/07/30 06:05:56;;;;;;;;;;;13.10;99.90;;;;;;5077153;28;19924;-87
2021/07/30 06:08:23;;;;;;;;;;;13.00;99.90;;;;;;5077288;28;20388;-88
2021/07/30 06:10:50;;;;;;;;;;;13.00;99.90;;;;;;5077416;28;19951;-86
2021/07/30 06:13:16;;;;;;;;;;;13.00;99.90;;;;;;5077256;28;19931;-87
2021/07/30 06:15:45;;;;;;;;;;;13.00;99.90;;;;;;5077313;28;19924;-86
2021/07/30 06:18:12;;;;;;;;;;;13.00;99.90;;;;;;5076937;28;19935;-91
2021/07/30 06:20:38;;;;;;;;;;;12.90;99.90;;;;;;5076933;28;19924;-78
2021/07/30 06:23:05;;;;;;;;;;;12.90;99.90;;;;;;5077172;28;19939;-78
2021/07/30 06:25:32;;;;;;;;;;;13.00;99.90;;;;;;5077003;28;19934;-77
2021/07/30 06:28:00;;;;;;;;;;;12.90;99.90;;;;;;5077005;28;19980;-77
2021/07/30 06:30:27;;;;;;;;;;;13.00;99.90;;;;;;5076690;28;20273;-78
2021/07/30 06:33:04;;;;;;;;;;;13.00;99.90;;;;;;5076597;28;19938;-76
2021/07/30 06:35:32;;;;;;;;;;;13.00;99.90;;;;;;5076692;28;19925;-77
2021/07/30 06:37:58;;;;;;;;;;;13.00;99.90;;;;;;5076865;28;19947;-77
2021/07/30 06:40:26;;;;;;;;;;;13.00;99.90;;;;;;5076637;28;20359;-77
2021/07/30 06:42:54;;;;;;;;;;;13.00;99.90;;;;;;5076554;28;19924;-77
2021/07/30 06:45:22;;;;;;;;;;;13.00;99.90;;;;;;5076533;28;19924;-78
2021/07/30 06:47:51;;;;;;;;;;;13.00;99.90;;;;;;5076654;28;19924;-78
2021/07/30 06:50:19;;;;;;;;;;;13.00;99.90;;;;;;5076625;28;19924;-77
2021/07/30 06:52:47;;;;;;;;;;;13.00;99.90;;;;;;5076493;28;20285;-77
2021/07/30 06:55:14;;;;;;;;;;;13.00;99.90;;;;;;5076339;28;20266;-78
2021/07/30 06:57:41;;;;;;;;;;;13.10;99.90;;;;;;5076238;28;19931;-78
2021/07/30 07:00:09;;;;;;;;;;;13.10;99.90;;;;;;5075345;28;19924;-78
2021/07/30 07:02:36;;;;;;;;;;;13.10;99.90;;;;;;5076298;28;19928;-78
2021/07/30 07:05:03;;;;;;;;;;;13.10;99.90;;;;;;5075930;28;19930;-78
2021/07/30 07:07:31;;;;;;;;;;;13.10;99.90;;;;;;5076198;28;19924;-79
2021/07/30 07:09:58;;;;;;;;;;;13.20;99.90;;;;;;5075990;28;20041;-79
2021/07/30 07:12:24;;;;;;;;;;;13.20;99.90;;;;;;5076068;28;20372;-78
2021/07/30 07:14:51;;;;;;;;;;;13.20;99.90;;;;;;5075656;28;19924;-78
2021/07/30 07:17:18;;;;;;;;;;;13.20;99.90;;;;;;5075852;28;19924;-77
2021/07/30 07:19:47;;;;;;;;;;;13.20;99.90;;;;;;5075862;28;19936;-78
2021/07/30 07:22:15;;;;;;;;;;;13.20;99.90;;;;;;5075865;28;19925;-77
2021/07/30 07:24:43;;;;;;;;;;;13.20;99.90;;;;;;5075620;28;20346;-77
2021/07/30 07:27:11;;;;;;;;;;;13.30;99.90;;;;;;5075875;28;19924;-79
2021/07/30 07:29:40;;;;;;;;;;;13.30;99.90;;;;;;5075683;28;19935;-78
2021/07/30 07:32:10;;;;;;;;;;;13.30;99.90;;;;;;5075664;28;19925;-78
2021/07/30 07:34:38;;;;;;;;;;;13.30;99.90;;;;;;5075477;28;19982;-77
2021/07/30 07:37:05;;;;;;;;;;;13.30;99.90;;;;;;5075283;28;19928;-79
2021/07/30 07:39:32;;;;;;;;;;;13.30;99.90;;;;;;5075646;28;19924;-78
2021/07/30 07:42:00;;;;;;;;;;;13.30;99.90;;;;;;5075263;28;19925;-78
2021/07/30 07:44:27;;;;;;;;;;;13.20;99.90;;;;;;5075769;28;19951;-79
2021/07/30 07:46:55;;;;;;;;;;;13.20;99.90;;;;;;5074773;28;19951;-78
2021/07/30 07:49:22;;;;;;;;;;;13.20;99.90;;;;;;5075010;28;19935;-78
2021/07/30 07:51:48;;;;;;;;;;;13.20;99.90;;;;;;5071472;28;19980;-78
2021/07/30 07:54:16;;;;;;;;;;;13.20;99.90;;;;;;5071952;28;19925;-78
2021/07/30 07:56:42;;;;;;;;;;;13.20;99.90;;;;;;5075264;28;19925;-80
2021/07/30 07:59:11;;;;;;;;;;;13.20;99.90;;;;;;5075385;28;19925;-80
2021/07/30 08:01:38;;;;;;;;;;;13.20;99.90;;;;;;5075246;28;20364;-78
2021/07/30 08:04:05;;;;;;;;;;;13.20;99.90;;;;;;5074582;28;19924;-78
2021/07/30 08:06:31;;;;;;;;;;;13.30;99.90;;;;;;5075146;28;20007;-79
2021/07/30 08:09:00;;;;;;;;;;;13.40;99.90;;;;;;5074816;28;20269;-80
2021/07/30 08:11:28;;;;;;;;;;;14.40;99.90;;;;;;5075361;28;19924;-80
2021/07/30 08:13:56;;;;;;;;;;;16.00;99.90;;;;;;5075017;28;20342;-79
2021/07/30 08:16:33;;;;;;;;;;;16.80;99.90;;;;;;5075145;28;19936;-79
2021/07/30 08:19:01;;;;;;;;;;;17.20;99.90;;;;;;5075477;28;20334;-79
2021/07/30 08:21:30;;;;;;;;;;;17.30;99.90;;;;;;5074909;28;19924;-79
2021/07/30 08:23:58;;;;;;;;;;;17.30;99.90;;;;;;5075223;28;19924;-78
2021/07/30 08:26:27;;;;;;;;;;;17.30;99.90;;;;;;5075208;28;19925;-78
2021/07/30 08:28:53;;;;;;;;;;;17.00;99.90;;;;;;5074971;28;19938;-78
2021/07/30 08:31:30;;;;;;;;;;;16.70;99.90;;;;;;5074991;28;19924;-78
2021/07/30 08:33:58;;;;;;;;;;;16.60;99.90;;;;;;5075042;28;19929;-80
2021/07/30 08:36:26;;;;;;;;;;;16.70;99.90;;;;;;5074311;28;20366;-78
2021/07/30 08:38:55;;;;;;;;;;;16.70;99.90;;;;;;5074355;28;20037;-78
2021/07/30 08:41:24;;;;;;;;;;;16.50;99.90;;;;;;5074486;28;19929;-78
2021/07/30 08:43:53;;;;;;;;;;;16.30;99.90;;;;;;5074856;28;19925;-78
2021/07/30 08:46:26;;;;;;;;;;;16.10;99.90;;;;;;5074647;28;19986;-78
2021/07/30 08:48:54;;;;;;;;;;;15.70;99.90;;;;;;5074626;28;19924;-77
2021/07/30 08:51:22;;;;;;;;;;;15.50;99.90;;;;;;5075143;28;19925;-77
2021/07/30 08:53:50;;;;;;;;;;;15.30;99.90;;;;;;5075010;28;19980;-77
2021/07/30 08:56:19;;;;;;;;;;;15.10;99.90;;;;;;5074738;28;19925;-78
2021/07/30 08:58:47;;;;;;;;;;;15.00;99.90;;;;;;5074774;28;19955;-77
2021/07/30 09:01:16;;;;;;;;;;;15.00;99.90;;;;;;5074723;28;20346;-77
2021/07/30 09:03:46;;;;;;;;;;;14.90;99.90;;;;;;5075078;28;19924;-77
2021/07/30 09:06:16;;;;;;;;;;;14.90;99.90;;;;;;5073502;28;19936;-77
2021/07/30 09:08:43;;;;;;;;;;;14.80;99.90;;;;;;5074220;28;19935;-78
2021/07/30 09:11:10;;;;;;;;;;;14.80;99.90;;;;;;5074646;28;19931;-78
2021/07/30 09:13:37;;;;;;;;;;;14.90;99.90;;;;;;5074006;28;19929;-78
2021/07/30 09:16:04;;;;;;;;;;;14.90;99.90;;;;;;5077472;28;20251;-78
2021/07/30 09:18:32;;;;;;;;;;;14.90;99.90;;;;;;5078435;28;19924;-76
2021/07/30 09:21:14;;;;;;;;;;;14.90;99.90;;;;;;5077955;28;19954;-77
2021/07/30 09:23:46;;;;;;;;;;;14.90;99.90;;;;;;5078183;28;19924;-77
2021/07/30 09:26:23;;;;;;;;;;;14.80;99.90;;;;;;5077986;28;19924;-76
2021/07/30 09:28:54;;;;;;;;;;;14.80;99.90;;;;;;5077944;28;19935;-77
2021/07/30 09:31:20;;;;;;;;;;;14.80;99.90;;;;;;5077972;28;19925;-77
2021/07/30 09:33:47;;;;;;;;;;;14.80;99.90;;;;;;5078068;28;19934;-77
2021/07/30 09:36:14;;;;;;;;;;;14.70;99.90;;;;;;5078009;28;19935;-77
2021/07/30 09:38:41;;;;;;;;;;;14.70;99.90;;;;;;5077842;28;20411;-76
2021/07/30 09:41:13;;;;;;;;;;;14.70;99.90;;;;;;5077806;28;19935;-76
2021/07/30 09:43:40;;;;;;;;;;;14.70;99.90;;;;;;5077938;28;19925;-77
2021/07/30 09:46:13;;;;;;;;;;;14.70;99.90;;;;;;5077598;28;20379;-76
2021/07/30 09:48:49;;;;;;;;;;;14.70;99.90;;;;;;5077736;28;19949;-77
2021/07/30 09:51:16;;;;;;;;;;;14.60;99.90;;;;;;5077967;28;19931;-76
2021/07/30 09:53:44;;;;;;;;;;;14.60;99.90;;;;;;5077725;28;19939;-76
2021/07/30 09:56:11;;;;;;;;;;;14.60;99.90;;;;;;5077395;28;20346;-77
2021/07/30 09:58:39;;;;;;;;;;;14.70;99.90;;;;;;5077425;28;20276;-76
2021/07/30 10:01:06;;;;;;;;;;;14.70;99.90;;;;;;5077362;28;19925;-78
2021/07/30 10:03:33;;;;;;;;;;;14.70;99.90;;;;;;5077419;28;19925;-77
2021/07/30 10:05:59;;;;;;;;;;;14.80;99.90;;;;;;5077302;28;19930;-76
2021/07/30 10:08:26;;;;;;;;;;;14.90;99.90;;;;;;5077050;28;20011;-76
2021/07/30 10:10:53;;;;;;;;;;;15.00;99.90;;;;;;5077317;28;19924;-77
2021/07/30 10:13:25;;;;;;;;;;;15.10;99.90;;;;;;5077256;28;19924;-76
2021/07/30 10:15:53;;;;;;;;;;;15.20;99.90;;;;;;5077245;28;20022;-77
2021/07/30 10:18:20;;;;;;;;;;;15.30;99.90;;;;;;5077482;28;19924;-76
2021/07/30 10:20:47;;;;;;;;;;;15.40;99.90;;;;;;5077175;28;19935;-76
2021/07/30 10:23:15;;;;;;;;;;;15.40;99.90;;;;;;5077166;28;20254;-76
2021/07/30 10:25:42;;;;;;;;;;;15.50;99.90;;;;;;5076399;28;19924;-76
2021/07/30 10:28:11;;;;;;;;;;;15.50;99.90;;;;;;5076990;28;19928;-76
2021/07/30 10:30:53;;;;;;;;;;;15.50;99.90;;;;;;5076780;28;20011;-76
2021/07/30 10:33:34;;;;;;;;;;;15.50;99.90;;;;;;5076746;28;19924;-77
2021/07/30 10:36:01;;;;;;;;;;;15.60;99.90;;;;;;5076615;28;19934;-77
2021/07/30 10:38:28;;;;;;;;;;;15.60;99.90;;;;;;5076830;28;20370;-76
2021/07/30 10:41:13;;;;;;;;;;;15.70;99.90;;;;;;5076575;28;19924;-76
2021/07/30 10:43:55;;;;;;;;;;;15.80;99.90;;;;;;5076800;28;19925;-76
2021/07/30 10:46:23;;;;;;;;;;;15.80;99.90;;;;;;5076397;28;19925;-76
2021/07/30 10:48:53;;;;;;;;;;;15.80;99.90;;;;;;5076637;28;19924;-76
2021/07/30 10:51:23;;;;;;;;;;;15.80;99.90;;;;;;5076515;28;19963;-76
2021/07/30 10:53:54;;;;;;;;;;;15.90;99.90;;;;;;5076298;28;19924;-76
2021/07/30 10:56:48;;;;;;;;;;;15.80;99.90;;;;;;5076161;28;20316;-76
2021/07/30 10:59:15;;;;;;;;;;;15.80;99.90;;;;;;5076463;28;19947;-77
2021/07/30 11:01:56;;;;;;;;;;;15.70;99.90;;;;;;5076304;28;19924;-76
2021/07/30 11:04:23;;;;;;;;;;;15.80;99.90;;;;;;5076205;28;19997;-76
2021/07/30 11:06:57;;;;;;;;;;;15.80;99.90;;;;;;5076060;28;19928;-76
2021/07/30 11:09:24;;;;;;;;;;;15.90;99.90;;;;;;5075811;28;19928;-77
2021/07/30 11:11:52;;;;;;;;;;;16.10;99.90;;;;;;5076152;28;19925;-76
2021/07/30 11:14:20;;;;;;;;;;;16.20;99.90;;;;;;5075893;28;20413;-76
2021/07/30 11:16:48;;;;;;;;;;;16.30;99.90;;;;;;5075730;28;19924;-76
2021/07/30 11:19:19;;;;;;;;;;;16.50;99.90;;;;;;5075800;28;20349;-76
2021/07/30 11:21:50;;;;;;;;;;;16.70;99.90;;;;;;5075708;28;20219;-76
2021/07/30 11:24:20;;;;;;;;;;;16.90;99.90;;;;;;5076024;28;20419;-75
2021/07/30 11:26:49;;;;;;;;;;;17.00;99.90;;;;;;5075807;28;19924;-76
2021/07/30 11:29:16;;;;;;;;;;;17.10;99.90;;;;;;5075688;28;19932;-76
2021/07/30 11:31:55;;;;;;;;;;;17.10;99.90;;;;;;5075753;28;19930;-76
2021/07/30 11:34:28;;;;;;;;;;;17.10;99.90;;;;;;5075880;28;19924;-76
2021/07/30 11:36:55;;;;;;;;;;;17.10;99.90;;;;;;5075162;28;19925;-76
2021/07/30 11:39:32;;;;;;;;;;;16.90;99.90;;;;;;5075075;28;19962;-76
2021/07/30 11:42:03;;;;;;;;;;;16.80;99.90;;;;;;5075572;28;20281;-76
2021/07/30 11:44:41;;;;;;;;;;;16.70;99.90;;;;;;5075417;28;20050;-76
2021/07/30 11:47:15;;;;;;;;;;;16.50;99.90;;;;;;5075647;28;19924;-76
2021/07/30 11:49:45;;;;;;;;;;;16.40;99.90;;;;;;5075547;28;19931;-76
2021/07/30 11:52:19;;;;;;;;;;;16.30;99.90;;;;;;5075339;28;19934;-76
2021/07/30 11:54:49;;;;;;;;;;;16.40;99.90;;;;;;5075268;28;20355;-76
2021/07/30 11:57:26;;;;;;;;;;;16.60;99.90;;;;;;5075118;28;19939;-76
2021/07/30 11:59:55;;;;;;;;;;;16.70;99.90;;;;;;5073373;28;19924;-76
2021/07/30 12:02:25;;;;;;;;;;;16.70;99.90;;;;;;5074847;28;19924;-76
2021/07/30 12:04:56;;;;;;;;;;;16.70;99.90;;;;;;5074660;28;19925;-76
2021/07/30 12:07:26;;;;;;;;;;;16.80;99.90;;;;;;5075196;28;19924;-76
2021/07/30 12:09:55;;;;;;;;;;;16.90;99.90;;;;;;5074820;28;19925;-76
2021/07/30 12:12:23;;;;;;;;;;;17.00;99.90;;;;;;5075336;28;19924;-76
2021/07/30 12:14:51;;;;;;;;;;;17.10;99.90;;;;;;5075198;28;19932;-76
2021/07/30 12:17:20;;;;;;;;;;;17.10;99.90;;;;;;5074858;28;20266;-76
2021/07/30 12:20:01;;;;;;;;;;;17.10;99.90;;;;;;5075022;28;19924;-76
2021/07/30 12:22:41;;;;;;;;;;;17.00;99.90;;;;;;5075024;28;19925;-76
2021/07/30 12:25:11;;;;;;;;;;;16.90;99.90;;;;;;5075001;28;19932;-76
2021/07/30 12:27:39;;;;;;;;;;;16.80;99.90;;;;;;5074876;28;19989;-76
2021/07/30 12:30:08;;;;;;;;;;;16.70;99.90;;;;;;5074992;28;19924;-76
2021/07/30 12:32:41;;;;;;;;;;;16.60;99.90;;;;;;5074829;28;19924;-75
2021/07/30 12:35:12;;;;;;;;;;;16.60;99.90;;;;;;5074960;28;19968;-76
2021/07/30 12:37:39;;;;;;;;;;;16.50;99.90;;;;;;5074682;28;19936;-76
2021/07/30 12:40:08;;;;;;;;;;;16.40;99.90;;;;;;5074740;28;19930;-76
2021/07/30 12:42:46;;;;;;;;;;;16.40;99.90;;;;;;5074967;28;19925;-76
2021/07/30 12:45:18;;;;;;;;;;;16.30;99.90;;;;;;5074562;28;20011;-76
2021/07/30 12:47:58;;;;;;;;;;;16.30;99.90;;;;;;5075134;28;19968;-76
2021/07/30 12:50:30;;;;;;;;;;;16.40;99.90;;;;;;5078034;28;20416;-76
2021/07/30 12:53:15;;;;;;;;;;;16.50;99.90;;;;;;5078789;28;20346;-76
2021/07/30 12:56:09;;;;;;;;;;;16.60;99.90;;;;;;5074566;28;19939;-76
2021/07/30 12:58:36;;;;;;;;;;;16.80;99.90;;;;;;5078675;28;19932;-75
2021/07/30 13:01:13;;;;;;;;;;;17.00;99.90;;;;;;5078483;28;19925;-76
2021/07/30 13:03:41;;;;;;;;;;;17.10;99.90;;;;;;5078448;28;19954;-76
2021/07/30 13:06:13;;;;;;;;;;;17.20;99.90;;;;;;5078783;28;19924;-76
2021/07/30 13:08:42;;;;;;;;;;;17.20;99.90;;;;;;5077991;28;19931;-76
2021/07/30 13:11:10;;;;;;;;;;;17.20;99.90;;;;;;5077576;28;19928;-75
2021/07/30 13:13:38;;;;;;;;;;;17.20;99.90;;;;;;5078161;28;19935;-76
2021/07/30 13:16:06;;;;;;;;;;;17.20;99.90;;;;;;5078168;28;20285;-76
2021/07/30 13:18:34;;;;;;;;;;;17.30;99.90;;;;;;5078081;28;19925;-76
2021/07/30 13:21:03;;;;;;;;;;;17.30;99.90;;;;;;5078461;28;19924;-76
2021/07/30 13:23:36;;;;;;;;;;;17.40;99.90;;;;;;5078192;28;19925;-76
2021/07/30 13:26:04;;;;;;;;;;;17.40;99.90;;;;;;5078162;28;19924;-76
2021/07/30 13:28:33;;;;;;;;;;;17.30;99.90;;;;;;5078176;28;19935;-76
2021/07/30 13:31:01;;;;;;;;;;;17.30;99.90;;;;;;5078073;28;19930;-76
2021/07/30 13:33:28;;;;;;;;;;;17.20;99.90;;;;;;5078205;28;19925;-83
2021/07/30 13:35:56;;;;;;;;;;;17.10;99.90;;;;;;5077985;28;19925;-89
2021/07/30 13:38:24;;;;;;;;;;;17.00;99.90;;;;;;5078001;28;19935;-76
2021/07/30 13:40:55;;;;;;;;;;;17.00;99.90;;;;;;5077760;28;19935;-76
2021/07/30 13:43:25;;;;;;;;;;;17.00;99.90;;;;;;5077735;28;19978;-75
2021/07/30 13:45:53;;;;;;;;;;;17.00;99.90;;;;;;5074238;28;20285;-75
2021/07/30 13:48:19;;;;;;;;;;;17.00;99.90;;;;;;5077385;28;19925;-76
2021/07/30 13:50:46;;;;;;;;;;;17.00;99.90;;;;;;5077716;28;19925;-75
2021/07/30 13:53:13;;;;;;;;;;;16.90;99.90;;;;;;5077467;28;19924;-76
2021/07/30 13:55:40;;;;;;;;;;;16.80;99.90;;;;;;5077474;28;19935;-76
2021/07/30 13:58:08;;;;;;;;;;;16.70;99.90;;;;;;5077217;28;19934;-82
2021/07/30 14:00:35;;;;;;;;;;;16.70;99.90;;;;;;5076404;28;19935;-79
2021/07/30 14:03:02;;;;;;;;;;;16.60;99.90;;;;;;5077577;28;19924;-78
2021/07/30 14:05:29;;;;;;;;;;;16.50;99.90;;;;;;5077653;28;19928;-78
2021/07/30 14:07:56;;;;;;;;;;;16.50;99.90;;;;;;5077185;28;20243;-80
2021/07/30 14:10:23;;;;;;;;;;;16.50;99.90;;;;;;5077275;28;19930;-76
2021/07/30 14:12:49;;;;;;;;;;;16.40;99.90;;;;;;5076239;28;19935;-77
2021/07/30 14:15:18;;;;;;;;;;;16.40;99.90;;;;;;5077157;28;20023;-80
2021/07/30 14:17:44;;;;;;;;;;;16.30;99.90;;;;;;5077144;28;19925;-78
2021/07/30 14:20:12;;;;;;;;;;;16.30;99.90;;;;;;5077063;28;20380;-79
2021/07/30 14:22:39;;;;;;;;;;;16.30;99.90;;;;;;5076910;28;20342;-80